sensor_id;sensor_type;location;lat;lon;timestamp;temperature;humidity
52979;DHT22;63430;53.186;6.598;2023-04-24T00:01:51;11.20;99.90
52979;DHT22;63430;53.186;6.598;2023-04-24T00:03:54;11.20;99.90
52979;DHT22;63430;53.186;6.598;2023-04-24T00:05:57;11.30;99.90
52979;DHT22;63430;53.186;6.598;2023-04-24T00:08:01;11.20;99.90
52979;DHT22;63430;53.186;6.598;2023-04-24T00:10:05;11.30;99.90
52979;DHT22;63430;53.186;6.598;2023-04-24T00:12:07;11.30;99.90
52979;DHT22;63430;53.186;6.598;2023-04-24T00:14:13;11.20;99.90
52979;DHT22;63430;53.186;6.598;2023-04-24T00:16:15;11.20;99.90
52979;DHT22;63430;53.186;6.598;2023-04-24T00:18:19;11.20;99.90
52979;DHT22;63430;53.186;6.598;2023-04-24T00:20:21;11.30;99.90
52979;DHT22;63430;53.186;6.598;2023-04-24T00:22:24;11.20;99.90
52979;DHT22;63430;53.186;6.598;2023-04-24T00:24:27;11.20;99.90
52979;DHT22;63430;53.186;6.598;2023-04-24T00:26:30;11.20;99.90
52979;DHT22;63430;53.186;6.598;2023-04-24T00:28:32;11.20;99.90
52979;DHT22;63430;53.186;6.598;2023-04-24T00:30:37;11.10;99.90
52979;DHT22;63430;53.186;6.598;2023-04-24T00:32:40;11.10;99.90
52979;DHT22;63430;53.186;6.598;2023-04-24T00:34:42;11.10;99.90
52979;DHT22;63430;53.186;6.598;2023-04-24T00:36:45;11.00;99.90
52979;DHT22;63430;53.186;6.598;2023-04-24T00:38:48;11.00;99.90
52979;DHT22;63430;53.186;6.598;2023-04-24T00:40:50;10.90;99.90
52979;DHT22;63430;53.186;6.598;2023-04-24T00:42:53;10.90;99.90
52979;DHT22;63430;53.186;6.598;2023-04-24T00:44:56;10.80;99.90
52979;DHT22;63430;53.186;6.598;2023-04-24T00:47:02;11.30;99.90
52979;DHT22;63430;53.186;6.598;2023-04-24T00:49:05;10.80;99.90
52979;DHT22;63430;53.186;6.598;2023-04-24T00:51:11;10.80;99.90
52979;DHT22;63430;53.186;6.598;2023-04-24T00:53:13;10.80;99.90
52979;DHT22;63430;53.186;6.598;2023-04-24T00:55:16;10.70;99.90
52979;DHT22;63430;53.186;6.598;2023-04-24T00:57:18;10.70;99.90
52979;DHT22;63430;53.186;6.598;2023-04-24T00:59:21;10.70;99.90
52979;DHT22;63430;53.186;6.598;2023-04-24T01:01:24;10.70;99.90
52979;DHT22;63430;53.186;6.598;2023-04-24T01:03:30;10.60;99.90
52979;DHT22;63430;53.186;6.598;2023-04-24T01:05:34;11.00;99.90
52979;DHT22;63430;53.186;6.598;2023-04-24T01:07:38;10.60;99.90
52979;DHT22;63430;53.186;6.598;2023-04-24T01:09:41;10.80;99.90
52979;DHT22;63430;53.186;6.598;2023-04-24T01:11:46;10.20;99.90
52979;DHT22;63430;53.186;6.598;2023-04-24T01:13:49;10.50;99.90
52979;DHT22;63430;53.186;6.598;2023-04-24T01:15:52;10.50;99.90
52979;DHT22;63430;53.186;6.598;2023-04-24T01:17:58;10.50;99.90
52979;DHT22;63430;53.186;6.598;2023-04-24T01:20:06;10.40;99.90
52979;DHT22;63430;53.186;6.598;2023-04-24T01:22:13;10.40;99.90
52979;DHT22;63430;53.186;6.598;2023-04-24T01:24:16;10.40;99.90
52979;DHT22;63430;53.186;6.598;2023-04-24T01:26:21;10.80;99.90
52979;DHT22;63430;53.186;6.598;2023-04-24T01:28:24;10.30;99.90
52979;DHT22;63430;53.186;6.598;2023-04-24T01:30:27;10.30;99.90
52979;DHT22;63430;53.186;6.598;2023-04-24T01:32:32;10.30;99.90
52979;DHT22;63430;53.186;6.598;2023-04-24T01:34:34;10.30;99.90
52979;DHT22;63430;53.186;6.598;2023-04-24T01:36:38;10.30;99.90
52979;DHT22;63430;53.186;6.598;2023-04-24T01:38:44;10.30;99.90
52979;DHT22;63430;53.186;6.598;2023-04-24T01:40:46;10.30;99.90
52979;DHT22;63430;53.186;6.598;2023-04-24T01:42:49;10.60;99.90
52979;DHT22;63430;53.186;6.598;2023-04-24T01:44:52;10.30;99.90
52979;DHT22;63430;53.186;6.598;2023-04-24T01:46:55;11.30;99.90
52979;DHT22;63430;53.186;6.598;2023-04-24T01:49:00;10.20;99.90
52979;DHT22;63430;53.186;6.598;2023-04-24T01:51:03;10.20;99.90
52979;DHT22;63430;53.186;6.598;2023-04-24T01:53:06;10.60;99.90
52979;DHT22;63430;53.186;6.598;2023-04-24T01:55:11;10.20;99.90
52979;DHT22;63430;53.186;6.598;2023-04-24T01:57:14;10.20;99.90
52979;DHT22;63430;53.186;6.598;2023-04-24T01:59:20;10.20;99.90
52979;DHT22;63430;53.186;6.598;2023-04-24T02:01:24;10.20;99.90
52979;DHT22;63430;53.186;6.598;2023-04-24T02:03:27;10.40;99.90
52979;DHT22;63430;53.186;6.598;2023-04-24T02:05:34;10.20;99.90
52979;DHT22;63430;53.186;6.598;2023-04-24T02:07:38;10.10;99.90
52979;DHT22;63430;53.186;6.598;2023-04-24T02:09:40;10.20;99.90
52979;DHT22;63430;53.186;6.598;2023-04-24T02:11:46;10.10;99.90
52979;DHT22;63430;53.186;6.598;2023-04-24T02:13:48;10.50;99.90
52979;DHT22;63430;53.186;6.598;2023-04-24T02:15:52;9.60;99.90
52979;DHT22;63430;53.186;6.598;2023-04-24T02:17:55;10.10;99.90
52979;DHT22;63430;53.186;6.598;2023-04-24T02:19:57;10.10;99.90
52979;DHT22;63430;53.186;6.598;2023-04-24T02:22:02;10.10;99.90
52979;DHT22;63430;53.186;6.598;2023-04-24T02:24:05;10.10;99.90
52979;DHT22;63430;53.186;6.598;2023-04-24T02:26:08;10.10;99.90
52979;DHT22;63430;53.186;6.598;2023-04-24T02:28:15;10.10;99.90
52979;DHT22;63430;53.186;6.598;2023-04-24T02:30:18;11.10;99.90
52979;DHT22;63430;53.186;6.598;2023-04-24T02:32:20;10.10;99.90
52979;DHT22;63430;53.186;6.598;2023-04-24T02:34:23;10.10;99.90
52979;DHT22;63430;53.186;6.598;2023-04-24T02:36:25;10.10;99.90
52979;DHT22;63430;53.186;6.598;2023-04-24T02:38:28;10.10;99.90
52979;DHT22;63430;53.186;6.598;2023-04-24T02:40:32;10.10;99.90
52979;DHT22;63430;53.186;6.598;2023-04-24T02:42:34;10.10;99.90
52979;DHT22;63430;53.186;6.598;2023-04-24T02:44:39;10.10;99.90
52979;DHT22;63430;53.186;6.598;2023-04-24T02:46:43;10.20;99.90
52979;DHT22;63430;53.186;6.598;2023-04-24T02:48:46;10.10;99.90
52979;DHT22;63430;53.186;6.598;2023-04-24T02:50:49;10.50;99.90
52979;DHT22;63430;53.186;6.598;2023-04-24T02:52:52;10.60;99.90
52979;DHT22;63430;53.186;6.598;2023-04-24T02:54:55;10.20;99.90
52979;DHT22;63430;53.186;6.598;2023-04-24T02:56:58;10.20;99.90
52979;DHT22;63430;53.186;6.598;2023-04-24T02:59:00;10.20;99.90
52979;DHT22;63430;53.186;6.598;2023-04-24T03:01:08;10.50;99.90
52979;DHT22;63430;53.186;6.598;2023-04-24T03:03:12;10.20;99.90
52979;DHT22;63430;53.186;6.598;2023-04-24T03:05:15;10.20;99.90
52979;DHT22;63430;53.186;6.598;2023-04-24T03:07:17;10.20;99.90
52979;DHT22;63430;53.186;6.598;2023-04-24T03:09:26;10.20;99.90
52979;DHT22;63430;53.186;6.598;2023-04-24T03:11:28;10.20;99.90
52979;DHT22;63430;53.186;6.598;2023-04-24T03:13:32;10.20;99.90
52979;DHT22;63430;53.186;6.598;2023-04-24T03:15:34;10.20;99.90
52979;DHT22;63430;53.186;6.598;2023-04-24T03:17:40;10.20;99.90
52979;DHT22;63430;53.186;6.598;2023-04-24T03:19:42;10.20;99.90
52979;DHT22;63430;53.186;6.598;2023-04-24T03:21:52;10.20;99.90
52979;DHT22;63430;53.186;6.598;2023-04-24T03:23:56;10.80;99.90
52979;DHT22;63430;53.186;6.598;2023-04-24T03:25:59;10.20;99.90
52979;DHT22;63430;53.186;6.598;2023-04-24T03:28:01;10.20;99.90
52979;DHT22;63430;53.186;6.598;2023-04-24T03:30:16;10.20;99.90
52979;DHT22;63430;53.186;6.598;2023-04-24T03:32:24;10.20;99.90
52979;DHT22;63430;53.186;6.598;2023-04-24T03:34:30;10.20;99.90
52979;DHT22;63430;53.186;6.598;2023-04-24T03:36:33;10.20;99.90
52979;DHT22;63430;53.186;6.598;2023-04-24T03:38:36;10.20;99.90
52979;DHT22;63430;53.186;6.598;2023-04-24T03:41:04;10.20;99.90
52979;DHT22;63430;53.186;6.598;2023-04-24T03:43:17;10.20;99.90
52979;DHT22;63430;53.186;6.598;2023-04-24T03:45:21;10.20;99.90
52979;DHT22;63430;53.186;6.598;2023-04-24T03:47:25;10.20;99.90
52979;DHT22;63430;53.186;6.598;2023-04-24T03:49:34;10.20;99.90
52979;DHT22;63430;53.186;6.598;2023-04-24T03:51:37;10.20;99.90
52979;DHT22;63430;53.186;6.598;2023-04-24T03:53:51;10.20;99.90
52979;DHT22;63430;53.186;6.598;2023-04-24T03:55:56;10.60;99.90
52979;DHT22;63430;53.186;6.598;2023-04-24T03:57:59;10.30;99.90
52979;DHT22;63430;53.186;6.598;2023-04-24T04:00:02;10.10;99.90
52979;DHT22;63430;53.186;6.598;2023-04-24T04:02:15;10.10;99.90
52979;DHT22;63430;53.186;6.598;2023-04-24T04:04:20;10.10;99.90
52979;DHT22;63430;53.186;6.598;2023-04-24T04:06:25;10.60;99.90
52979;DHT22;63430;53.186;6.598;2023-04-24T04:08:31;10.20;99.90
52979;DHT22;63430;53.186;6.598;2023-04-24T04:10:33;10.10;99.90
52979;DHT22;63430;53.186;6.598;2023-04-24T04:12:39;10.10;99.90
52979;DHT22;63430;53.186;6.598;2023-04-24T04:14:42;10.10;99.90
52979;DHT22;63430;53.186;6.598;2023-04-24T04:16:44;10.10;99.90
52979;DHT22;63430;53.186;6.598;2023-04-24T04:18:48;10.10;99.90
52979;DHT22;63430;53.186;6.598;2023-04-24T04:20:50;10.10;99.90
52979;DHT22;63430;53.186;6.598;2023-04-24T04:22:57;10.10;99.90
52979;DHT22;63430;53.186;6.598;2023-04-24T04:25:12;10.10;99.90
52979;DHT22;63430;53.186;6.598;2023-04-24T04:27:16;10.10;99.90
52979;DHT22;63430;53.186;6.598;2023-04-24T04:29:31;10.10;99.90
52979;DHT22;63430;53.186;6.598;2023-04-24T04:31:36;10.10;99.90
52979;DHT22;63430;53.186;6.598;2023-04-24T04:33:43;10.50;99.90
52979;DHT22;63430;53.186;6.598;2023-04-24T04:35:47;10.00;99.90
52979;DHT22;63430;53.186;6.598;2023-04-24T04:37:58;10.00;99.90
52979;DHT22;63430;53.186;6.598;2023-04-24T04:40:24;10.00;99.90
52979;DHT22;63430;53.186;6.598;2023-04-24T04:42:33;10.00;99.90
52979;DHT22;63430;53.186;6.598;2023-04-24T04:44:37;10.00;99.90
52979;DHT22;63430;53.186;6.598;2023-04-24T04:46:42;10.00;99.90
52979;DHT22;63430;53.186;6.598;2023-04-24T04:48:59;10.20;99.90
52979;DHT22;63430;53.186;6.598;2023-04-24T04:51:01;10.00;99.90
52979;DHT22;63430;53.186;6.598;2023-04-24T04:53:07;9.90;99.90
52979;DHT22;63430;53.186;6.598;2023-04-24T04:55:12;9.90;99.90
52979;DHT22;63430;53.186;6.598;2023-04-24T04:57:39;9.90;99.90
52979;DHT22;63430;53.186;6.598;2023-04-24T04:59:44;9.90;99.90
52979;DHT22;63430;53.186;6.598;2023-04-24T05:01:57;9.90;99.90
52979;DHT22;63430;53.186;6.598;2023-04-24T05:04:00;9.90;99.90
52979;DHT22;63430;53.186;6.598;2023-04-24T05:06:03;9.90;99.90
52979;DHT22;63430;53.186;6.598;2023-04-24T05:08:11;9.90;99.90
52979;DHT22;63430;53.186;6.598;2023-04-24T05:10:28;9.90;99.90
52979;DHT22;63430;53.186;6.598;2023-04-24T05:12:31;9.90;99.90
52979;DHT22;63430;53.186;6.598;2023-04-24T05:14:36;9.90;99.90
52979;DHT22;63430;53.186;6.598;2023-04-24T05:16:38;9.80;99.90
52979;DHT22;63430;53.186;6.598;2023-04-24T05:18:44;9.90;99.90
52979;DHT22;63430;53.186;6.598;2023-04-24T05:20:52;9.90;99.90
52979;DHT22;63430;53.186;6.598;2023-04-24T05:22:57;9.90;99.90
52979;DHT22;63430;53.186;6.598;2023-04-24T05:25:04;9.90;99.90
52979;DHT22;63430;53.186;6.598;2023-04-24T05:27:22;9.90;99.90
52979;DHT22;63430;53.186;6.598;2023-04-24T05:29:25;10.00;99.90
52979;DHT22;63430;53.186;6.598;2023-04-24T05:31:29;10.00;99.90
52979;DHT22;63430;53.186;6.598;2023-04-24T05:33:31;10.00;99.90
52979;DHT22;63430;53.186;6.598;2023-04-24T05:35:34;10.70;99.90
52979;DHT22;63430;53.186;6.598;2023-04-24T05:37:37;10.10;99.90
52979;DHT22;63430;53.186;6.598;2023-04-24T05:39:41;10.10;99.90
52979;DHT22;63430;53.186;6.598;2023-04-24T05:41:47;10.10;99.90
52979;DHT22;63430;53.186;6.598;2023-04-24T05:43:49;10.10;99.90
52979;DHT22;63430;53.186;6.598;2023-04-24T05:45:54;10.10;99.90
52979;DHT22;63430;53.186;6.598;2023-04-24T05:47:57;11.20;99.90
52979;DHT22;63430;53.186;6.598;2023-04-24T05:50:00;10.20;99.90
52979;DHT22;63430;53.186;6.598;2023-04-24T05:52:03;11.10;99.90
52979;DHT22;63430;53.186;6.598;2023-04-24T05:54:08;10.20;99.90
52979;DHT22;63430;53.186;6.598;2023-04-24T05:56:10;10.20;99.90
52979;DHT22;63430;53.186;6.598;2023-04-24T05:58:18;10.20;99.90
52979;DHT22;63430;53.186;6.598;2023-04-24T06:00:23;10.30;99.90
52979;DHT22;63430;53.186;6.598;2023-04-24T06:02:33;10.20;99.90
52979;DHT22;63430;53.186;6.598;2023-04-24T06:04:36;10.50;99.90
52979;DHT22;63430;53.186;6.598;2023-04-24T06:06:40;10.20;99.90
52979;DHT22;63430;53.186;6.598;2023-04-24T06:08:43;10.20;99.90
52979;DHT22;63430;53.186;6.598;2023-04-24T06:10:47;10.30;99.90
52979;DHT22;63430;53.186;6.598;2023-04-24T06:12:51;10.30;99.90
52979;DHT22;63430;53.186;6.598;2023-04-24T06:14:56;10.20;99.90
52979;DHT22;63430;53.186;6.598;2023-04-24T06:17:24;10.20;99.90
52979;DHT22;63430;53.186;6.598;2023-04-24T06:19:26;10.20;99.90
52979;DHT22;63430;53.186;6.598;2023-04-24T06:21:29;10.10;99.90
52979;DHT22;63430;53.186;6.598;2023-04-24T06:23:32;10.10;99.90
52979;DHT22;63430;53.186;6.598;2023-04-24T06:25:35;10.10;99.90
52979;DHT22;63430;53.186;6.598;2023-04-24T06:27:41;10.70;99.90
52979;DHT22;63430;53.186;6.598;2023-04-24T06:29:44;10.10;99.90
52979;DHT22;63430;53.186;6.598;2023-04-24T06:31:49;10.10;99.90
52979;DHT22;63430;53.186;6.598;2023-04-24T06:33:52;10.10;99.90
52979;DHT22;63430;53.186;6.598;2023-04-24T06:35:55;10.20;99.90
52979;DHT22;63430;53.186;6.598;2023-04-24T06:37:57;10.10;99.90
52979;DHT22;63430;53.186;6.598;2023-04-24T06:40:03;10.10;99.90
52979;DHT22;63430;53.186;6.598;2023-04-24T06:42:09;10.10;99.90
52979;DHT22;63430;53.186;6.598;2023-04-24T06:44:12;10.10;99.90
52979;DHT22;63430;53.186;6.598;2023-04-24T06:46:16;10.10;99.90
52979;DHT22;63430;53.186;6.598;2023-04-24T06:48:22;10.20;99.90
52979;DHT22;63430;53.186;6.598;2023-04-24T06:50:24;10.10;99.90
52979;DHT22;63430;53.186;6.598;2023-04-24T06:52:27;10.10;99.90
52979;DHT22;63430;53.186;6.598;2023-04-24T06:54:30;10.10;99.90
52979;DHT22;63430;53.186;6.598;2023-04-24T06:56:33;10.10;99.90
52979;DHT22;63430;53.186;6.598;2023-04-24T06:58:36;10.10;99.90
52979;DHT22;63430;53.186;6.598;2023-04-24T07:00:39;10.10;99.90
52979;DHT22;63430;53.186;6.598;2023-04-24T07:02:41;10.10;99.90
52979;DHT22;63430;53.186;6.598;2023-04-24T07:04:46;10.10;99.90
52979;DHT22;63430;53.186;6.598;2023-04-24T07:06:50;10.10;99.90
52979;DHT22;63430;53.186;6.598;2023-04-24T07:08:53;10.10;99.90
52979;DHT22;63430;53.186;6.598;2023-04-24T07:10:56;10.10;99.90
52979;DHT22;63430;53.186;6.598;2023-04-24T07:12:59;10.10;99.90
52979;DHT22;63430;53.186;6.598;2023-04-24T07:15:01;10.90;99.90
52979;DHT22;63430;53.186;6.598;2023-04-24T07:17:04;10.10;99.90
52979;DHT22;63430;53.186;6.598;2023-04-24T07:19:08;10.10;99.90
52979;DHT22;63430;53.186;6.598;2023-04-24T07:21:13;10.10;99.90
52979;DHT22;63430;53.186;6.598;2023-04-24T07:23:15;10.00;99.90
52979;DHT22;63430;53.186;6.598;2023-04-24T07:25:18;10.00;99.90
52979;DHT22;63430;53.186;6.598;2023-04-24T07:27:21;10.00;99.90
52979;DHT22;63430;53.186;6.598;2023-04-24T07:29:25;9.90;99.90
52979;DHT22;63430;53.186;6.598;2023-04-24T07:31:28;9.90;99.90
52979;DHT22;63430;53.186;6.598;2023-04-24T07:33:30;10.00;99.90
52979;DHT22;63430;53.186;6.598;2023-04-24T07:35:33;10.00;99.90
52979;DHT22;63430;53.186;6.598;2023-04-24T07:37:42;10.00;99.90
52979;DHT22;63430;53.186;6.598;2023-04-24T07:39:48;9.90;99.90
52979;DHT22;63430;53.186;6.598;2023-04-24T07:41:51;10.00;99.90
52979;DHT22;63430;53.186;6.598;2023-04-24T07:43:54;10.00;99.90
52979;DHT22;63430;53.186;6.598;2023-04-24T07:45:57;10.00;99.90
52979;DHT22;63430;53.186;6.598;2023-04-24T07:48:01;10.00;99.90
52979;DHT22;63430;53.186;6.598;2023-04-24T07:50:06;10.00;99.90
52979;DHT22;63430;53.186;6.598;2023-04-24T07:52:10;10.00;99.90
52979;DHT22;63430;53.186;6.598;2023-04-24T07:54:15;10.00;99.90
52979;DHT22;63430;53.186;6.598;2023-04-24T07:56:18;10.00;99.90
52979;DHT22;63430;53.186;6.598;2023-04-24T07:58:20;10.00;99.90
52979;DHT22;63430;53.186;6.598;2023-04-24T08:00:23;10.00;99.90
52979;DHT22;63430;53.186;6.598;2023-04-24T08:02:26;10.00;99.90
52979;DHT22;63430;53.186;6.598;2023-04-24T08:04:32;9.90;99.90
52979;DHT22;63430;53.186;6.598;2023-04-24T08:06:35;9.90;99.90
52979;DHT22;63430;53.186;6.598;2023-04-24T08:08:38;9.90;99.90
52979;DHT22;63430;53.186;6.598;2023-04-24T08:10:43;9.90;99.90
52979;DHT22;63430;53.186;6.598;2023-04-24T08:12:47;9.90;99.90
52979;DHT22;63430;53.186;6.598;2023-04-24T08:14:49;9.80;99.90
52979;DHT22;63430;53.186;6.598;2023-04-24T08:16:54;9.80;99.90
52979;DHT22;63430;53.186;6.598;2023-04-24T08:18:58;9.80;99.90
52979;DHT22;63430;53.186;6.598;2023-04-24T08:21:00;9.80;99.90
52979;DHT22;63430;53.186;6.598;2023-04-24T08:23:03;9.70;99.90
52979;DHT22;63430;53.186;6.598;2023-04-24T08:25:07;9.70;99.90
52979;DHT22;63430;53.186;6.598;2023-04-24T08:27:12;9.70;99.90
52979;DHT22;63430;53.186;6.598;2023-04-24T08:29:15;9.70;99.90
52979;DHT22;63430;53.186;6.598;2023-04-24T08:31:19;9.60;99.90
52979;DHT22;63430;53.186;6.598;2023-04-24T08:33:23;9.60;99.90
52979;DHT22;63430;53.186;6.598;2023-04-24T08:35:26;10.70;99.90
52979;DHT22;63430;53.186;6.598;2023-04-24T08:37:29;9.60;99.90
52979;DHT22;63430;53.186;6.598;2023-04-24T08:39:31;9.60;99.90
52979;DHT22;63430;53.186;6.598;2023-04-24T08:41:34;9.60;99.90
52979;DHT22;63430;53.186;6.598;2023-04-24T08:43:40;9.60;99.90
52979;DHT22;63430;53.186;6.598;2023-04-24T08:45:43;9.60;99.90
52979;DHT22;63430;53.186;6.598;2023-04-24T08:47:47;9.60;99.90
52979;DHT22;63430;53.186;6.598;2023-04-24T08:49:52;9.50;99.90
52979;DHT22;63430;53.186;6.598;2023-04-24T08:51:55;9.50;99.90
52979;DHT22;63430;53.186;6.598;2023-04-24T08:53:58;9.50;99.90
52979;DHT22;63430;53.186;6.598;2023-04-24T08:56:01;9.40;99.90
52979;DHT22;63430;53.186;6.598;2023-04-24T08:58:04;10.00;99.90
52979;DHT22;63430;53.186;6.598;2023-04-24T09:00:11;9.40;99.90
52979;DHT22;63430;53.186;6.598;2023-04-24T09:02:16;9.40;99.90
52979;DHT22;63430;53.186;6.598;2023-04-24T09:04:20;9.30;99.90
52979;DHT22;63430;53.186;6.598;2023-04-24T09:06:24;9.30;99.90
52979;DHT22;63430;53.186;6.598;2023-04-24T09:08:28;9.20;99.90
52979;DHT22;63430;53.186;6.598;2023-04-24T09:10:33;9.20;99.90
52979;DHT22;63430;53.186;6.598;2023-04-24T09:12:40;9.20;99.90
52979;DHT22;63430;53.186;6.598;2023-04-24T09:14:44;9.00;99.90
52979;DHT22;63430;53.186;6.598;2023-04-24T09:16:50;9.10;99.90
52979;DHT22;63430;53.186;6.598;2023-04-24T09:18:53;9.10;99.90
52979;DHT22;63430;53.186;6.598;2023-04-24T09:20:57;9.10;99.90
52979;DHT22;63430;53.186;6.598;2023-04-24T09:23:03;9.00;99.90
52979;DHT22;63430;53.186;6.598;2023-04-24T09:25:07;9.10;99.90
52979;DHT22;63430;53.186;6.598;2023-04-24T09:27:11;9.00;99.90
52979;DHT22;63430;53.186;6.598;2023-04-24T09:29:19;9.00;99.90
52979;DHT22;63430;53.186;6.598;2023-04-24T09:31:27;9.00;99.90
52979;DHT22;63430;53.186;6.598;2023-04-24T09:33:33;9.00;99.90
52979;DHT22;63430;53.186;6.598;2023-04-24T09:35:36;9.00;99.90
52979;DHT22;63430;53.186;6.598;2023-04-24T09:37:40;9.50;99.90
52979;DHT22;63430;53.186;6.598;2023-04-24T09:39:43;9.10;99.90
52979;DHT22;63430;53.186;6.598;2023-04-24T09:41:47;9.10;99.90
52979;DHT22;63430;53.186;6.598;2023-04-24T09:43:50;9.70;99.90
52979;DHT22;63430;53.186;6.598;2023-04-24T09:45:56;9.20;99.90
52979;DHT22;63430;53.186;6.598;2023-04-24T09:47:59;9.20;99.90
52979;DHT22;63430;53.186;6.598;2023-04-24T09:50:13;9.20;99.90
52979;DHT22;63430;53.186;6.598;2023-04-24T09:52:18;9.20;99.90
52979;DHT22;63430;53.186;6.598;2023-04-24T09:54:21;9.20;99.90
52979;DHT22;63430;53.186;6.598;2023-04-24T09:56:25;9.20;99.90
52979;DHT22;63430;53.186;6.598;2023-04-24T09:58:29;9.20;99.90
52979;DHT22;63430;53.186;6.598;2023-04-24T10:00:32;9.20;99.90
52979;DHT22;63430;53.186;6.598;2023-04-24T10:02:35;9.20;99.90
52979;DHT22;63430;53.186;6.598;2023-04-24T10:04:38;9.20;99.90
52979;DHT22;63430;53.186;6.598;2023-04-24T10:06:45;9.60;99.90
52979;DHT22;63430;53.186;6.598;2023-04-24T10:08:50;10.00;99.90
52979;DHT22;63430;53.186;6.598;2023-04-24T10:10:53;9.60;99.90
52979;DHT22;63430;53.186;6.598;2023-04-24T10:12:56;9.50;99.90
52979;DHT22;63430;53.186;6.598;2023-04-24T10:14:59;9.60;99.90
52979;DHT22;63430;53.186;6.598;2023-04-24T10:17:04;9.70;99.90
52979;DHT22;63430;53.186;6.598;2023-04-24T10:19:07;9.80;99.90
52979;DHT22;63430;53.186;6.598;2023-04-24T10:21:11;9.90;99.90
52979;DHT22;63430;53.186;6.598;2023-04-24T10:23:17;11.00;99.90
52979;DHT22;63430;53.186;6.598;2023-04-24T10:25:22;10.00;99.90
52979;DHT22;63430;53.186;6.598;2023-04-24T10:27:26;10.10;99.90
52979;DHT22;63430;53.186;6.598;2023-04-24T10:29:33;10.20;99.90
52979;DHT22;63430;53.186;6.598;2023-04-24T10:31:39;10.20;99.90
52979;DHT22;63430;53.186;6.598;2023-04-24T10:33:43;10.20;99.90
52979;DHT22;63430;53.186;6.598;2023-04-24T10:35:48;10.20;99.90
52979;DHT22;63430;53.186;6.598;2023-04-24T10:37:57;10.30;99.90
52979;DHT22;63430;53.186;6.598;2023-04-24T10:40:04;10.40;99.90
52979;DHT22;63430;53.186;6.598;2023-04-24T10:42:14;10.40;99.90
52979;DHT22;63430;53.186;6.598;2023-04-24T10:44:17;10.40;99.90
52979;DHT22;63430;53.186;6.598;2023-04-24T10:46:20;11.40;99.90
52979;DHT22;63430;53.186;6.598;2023-04-24T10:48:27;11.40;99.90
52979;DHT22;63430;53.186;6.598;2023-04-24T10:50:44;10.50;99.90
52979;DHT22;63430;53.186;6.598;2023-04-24T10:52:47;10.50;99.90
52979;DHT22;63430;53.186;6.598;2023-04-24T10:54:52;11.00;99.90
52979;DHT22;63430;53.186;6.598;2023-04-24T10:59:37;10.60;99.90
52979;DHT22;63430;53.186;6.598;2023-04-24T11:01:40;10.60;99.90
52979;DHT22;63430;53.186;6.598;2023-04-24T11:03:54;10.60;99.90
52979;DHT22;63430;53.186;6.598;2023-04-24T11:06:01;11.30;99.90
52979;DHT22;63430;53.186;6.598;2023-04-24T11:08:13;10.50;99.90
52979;DHT22;63430;53.186;6.598;2023-04-24T11:10:27;11.00;99.90
52979;DHT22;63430;53.186;6.598;2023-04-24T11:12:31;10.40;99.90
52979;DHT22;63430;53.186;6.598;2023-04-24T11:15:03;10.30;99.90
52979;DHT22;63430;53.186;6.598;2023-04-24T11:17:28;10.20;99.90
52979;DHT22;63430;53.186;6.598;2023-04-24T11:19:31;10.10;99.90
52979;DHT22;63430;53.186;6.598;2023-04-24T11:21:40;10.00;99.90
52979;DHT22;63430;53.186;6.598;2023-04-24T11:23:44;10.00;99.90
52979;DHT22;63430;53.186;6.598;2023-04-24T11:26:10;10.40;99.90
52979;DHT22;63430;53.186;6.598;2023-04-24T11:28:15;10.00;99.90
52979;DHT22;63430;53.186;6.598;2023-04-24T11:30:21;10.00;99.90
52979;DHT22;63430;53.186;6.598;2023-04-24T11:32:26;10.10;99.90
52979;DHT22;63430;53.186;6.598;2023-04-24T11:34:29;10.20;99.90
52979;DHT22;63430;53.186;6.598;2023-04-24T11:36:32;10.60;99.90
52979;DHT22;63430;53.186;6.598;2023-04-24T11:38:34;9.50;99.90
52979;DHT22;63430;53.186;6.598;2023-04-24T11:40:37;10.40;99.90
52979;DHT22;63430;53.186;6.598;2023-04-24T11:42:42;10.80;99.90
52979;DHT22;63430;53.186;6.598;2023-04-24T11:44:46;10.20;99.90
52979;DHT22;63430;53.186;6.598;2023-04-24T11:46:52;10.20;99.90
52979;DHT22;63430;53.186;6.598;2023-04-24T11:49:00;10.20;99.90
52979;DHT22;63430;53.186;6.598;2023-04-24T11:51:03;10.20;99.90
52979;DHT22;63430;53.186;6.598;2023-04-24T11:53:06;10.20;99.90
52979;DHT22;63430;53.186;6.598;2023-04-24T11:55:23;10.30;99.90
52979;DHT22;63430;53.186;6.598;2023-04-24T11:57:28;10.30;99.90
52979;DHT22;63430;53.186;6.598;2023-04-24T11:59:36;10.30;99.90
52979;DHT22;63430;53.186;6.598;2023-04-24T12:01:45;10.20;99.90
52979;DHT22;63430;53.186;6.598;2023-04-24T12:03:59;10.20;99.90
52979;DHT22;63430;53.186;6.598;2023-04-24T12:06:06;10.90;99.90
52979;DHT22;63430;53.186;6.598;2023-04-24T12:08:10;10.20;99.90
52979;DHT22;63430;53.186;6.598;2023-04-24T12:10:13;10.20;99.90
52979;DHT22;63430;53.186;6.598;2023-04-24T12:12:17;10.20;99.90
52979;DHT22;63430;53.186;6.598;2023-04-24T12:14:19;10.10;99.90
52979;DHT22;63430;53.186;6.598;2023-04-24T12:16:23;10.00;99.90
52979;DHT22;63430;53.186;6.598;2023-04-24T12:18:28;11.00;99.90
52979;DHT22;63430;53.186;6.598;2023-04-24T12:20:35;9.90;99.90
52979;DHT22;63430;53.186;6.598;2023-04-24T12:22:46;9.80;99.90
52979;DHT22;63430;53.186;6.598;2023-04-24T12:24:59;9.80;99.90
52979;DHT22;63430;53.186;6.598;2023-04-24T12:27:02;9.80;99.90
52979;DHT22;63430;53.186;6.598;2023-04-24T12:29:05;9.80;99.90
52979;DHT22;63430;53.186;6.598;2023-04-24T12:31:08;9.90;99.90
52979;DHT22;63430;53.186;6.598;2023-04-24T12:33:11;9.90;99.90
52979;DHT22;63430;53.186;6.598;2023-04-24T12:35:19;10.00;99.90
52979;DHT22;63430;53.186;6.598;2023-04-24T12:37:26;10.10;99.90
52979;DHT22;63430;53.186;6.598;2023-04-24T12:39:35;10.20;99.90
52979;DHT22;63430;53.186;6.598;2023-04-24T12:41:38;10.30;99.90
52979;DHT22;63430;53.186;6.598;2023-04-24T12:43:51;10.40;99.90
52979;DHT22;63430;53.186;6.598;2023-04-24T12:46:02;10.40;99.90
52979;DHT22;63430;53.186;6.598;2023-04-24T12:48:08;10.40;99.90
52979;DHT22;63430;53.186;6.598;2023-04-24T12:50:14;10.40;99.90
52979;DHT22;63430;53.186;6.598;2023-04-24T12:52:17;10.40;99.90
52979;DHT22;63430;53.186;6.598;2023-04-24T12:54:22;10.30;99.90
52979;DHT22;63430;53.186;6.598;2023-04-24T12:56:25;10.20;99.90
52979;DHT22;63430;53.186;6.598;2023-04-24T12:58:27;10.20;99.90
52979;DHT22;63430;53.186;6.598;2023-04-24T13:00:30;10.20;99.90
52979;DHT22;63430;53.186;6.598;2023-04-24T13:02:33;10.10;99.90
52979;DHT22;63430;53.186;6.598;2023-04-24T13:04:36;10.00;99.90
52979;DHT22;63430;53.186;6.598;2023-04-24T13:06:41;9.90;99.90
52979;DHT22;63430;53.186;6.598;2023-04-24T13:08:44;10.90;99.90
52979;DHT22;63430;53.186;6.598;2023-04-24T13:10:49;9.90;99.90
52979;DHT22;63430;53.186;6.598;2023-04-24T13:12:53;9.80;99.90
52979;DHT22;63430;53.186;6.598;2023-04-24T13:14:56;9.80;99.90
52979;DHT22;63430;53.186;6.598;2023-04-24T13:16:58;9.70;99.90